createdAt,value
2023-04-16T00:01:27.409Z,7.66
2023-04-16T00:03:54.821Z,7.64
2023-04-16T00:06:23.256Z,7.67
2023-04-16T00:08:50.360Z,7.67
2023-04-16T00:11:17.252Z,7.69
2023-04-16T00:13:43.800Z,7.66
2023-04-16T00:16:10.689Z,7.67
2023-04-16T00:18:37.268Z,7.64
2023-04-16T00:21:03.998Z,7.70
2023-04-16T00:23:30.552Z,7.68
2023-04-16T00:26:00.008Z,7.61
2023-04-16T00:28:27.691Z,7.69
2023-04-16T00:30:55.028Z,7.61
2023-04-16T00:33:21.777Z,7.66
2023-04-16T00:35:48.895Z,7.68
2023-04-16T00:38:15.847Z,7.66
2023-04-16T00:40:42.603Z,7.67
2023-04-16T00:43:09.204Z,7.69
2023-04-16T00:45:36.463Z,7.71
2023-04-16T00:48:03.223Z,7.67
2023-04-16T00:50:30.015Z,7.69
2023-04-16T00:52:56.855Z,7.61
2023-04-16T00:55:23.509Z,7.71
2023-04-16T00:57:50.029Z,7.69
2023-04-16T01:00:16.844Z,7.68
2023-04-16T01:02:43.610Z,7.64
2023-04-16T01:05:10.288Z,7.67
2023-04-16T01:07:36.832Z,7.69
2023-04-16T01:10:04.138Z,7.71
2023-04-16T01:12:30.674Z,7.66
2023-04-16T01:14:57.370Z,7.70
2023-04-16T01:17:24.094Z,7.67
2023-04-16T01:19:50.922Z,7.69
2023-04-16T01:22:17.545Z,7.64
2023-04-16T01:24:45.030Z,7.69
2023-04-16T01:27:11.545Z,7.72
2023-04-16T01:29:38.135Z,7.72
2023-04-16T01:32:04.746Z,7.73
2023-04-16T01:34:31.297Z,7.72
2023-04-16T01:36:57.827Z,7.73
2023-04-16T01:39:24.398Z,7.71
2023-04-16T01:41:50.919Z,7.73
2023-04-16T01:44:17.498Z,7.74
2023-04-16T01:46:45.082Z,7.71
2023-04-16T01:49:11.928Z,7.71
2023-04-16T01:51:38.676Z,7.74
2023-04-16T01:54:05.473Z,7.63
2023-04-16T01:56:31.985Z,7.71
2023-04-16T01:58:58.493Z,7.67
2023-04-16T02:01:25.434Z,7.69
2023-04-16T02:03:53.133Z,7.67
2023-04-16T02:06:19.871Z,7.73
2023-04-16T02:08:46.542Z,7.69
2023-04-16T02:11:13.042Z,7.73
2023-04-16T02:13:39.541Z,7.67
2023-04-16T02:16:06.451Z,7.72
2023-04-16T02:18:33.096Z,7.67
2023-04-16T02:21:00.335Z,7.61
2023-04-16T02:23:27.024Z,7.69
2023-04-16T02:25:53.588Z,7.71
2023-04-16T02:28:20.204Z,7.67
2023-04-16T02:30:46.765Z,7.72
2023-04-16T02:33:13.333Z,7.74
2023-04-16T02:35:40.610Z,7.69
2023-04-16T02:38:07.897Z,7.61
2023-04-16T02:40:34.439Z,7.69
2023-04-16T02:43:01.141Z,7.67
2023-04-16T02:45:27.930Z,7.71
2023-04-16T02:47:54.571Z,7.72
2023-04-16T02:50:21.246Z,7.74
2023-04-16T02:52:48.534Z,7.73
2023-04-16T02:55:15.124Z,7.75
2023-04-16T02:57:42.489Z,7.77
2023-04-16T03:00:09.881Z,7.73
2023-04-16T03:02:36.562Z,7.74
2023-04-16T03:05:03.688Z,7.76
2023-04-16T03:07:30.442Z,7.72
2023-04-16T03:09:57.241Z,7.77
2023-04-16T03:12:23.818Z,7.74
2023-04-16T03:14:53.533Z,7.76
2023-04-16T03:17:20.100Z,7.79
2023-04-16T03:19:46.664Z,7.76
2023-04-16T03:22:13.301Z,7.73
2023-04-16T03:24:39.826Z,7.78
2023-04-16T03:27:06.395Z,7.77
2023-04-16T03:29:33.114Z,7.81
2023-04-16T03:31:59.696Z,7.77
2023-04-16T03:34:26.618Z,7.78
2023-04-16T03:36:53.198Z,7.81
2023-04-16T03:39:19.730Z,7.83
2023-04-16T03:41:46.348Z,7.81
2023-04-16T03:44:13.007Z,7.79
2023-04-16T03:46:39.705Z,7.83
2023-04-16T03:49:06.287Z,7.84
2023-04-16T03:51:33.029Z,7.82
2023-04-16T03:53:59.673Z,7.85
2023-04-16T03:56:26.247Z,7.89
2023-04-16T03:58:52.831Z,7.84
2023-04-16T04:01:19.375Z,7.91
2023-04-16T04:03:46.093Z,7.92
2023-04-16T04:06:12.841Z,7.90
2023-04-16T04:08:39.369Z,7.89
2023-04-16T04:11:06.018Z,7.95
2023-04-16T04:13:32.585Z,7.85
2023-04-16T04:15:59.177Z,7.93
2023-04-16T04:18:25.722Z,7.93
2023-04-16T04:20:52.504Z,7.96
2023-04-16T04:23:19.120Z,7.98
2023-04-16T04:25:45.947Z,8.01
2023-04-16T04:28:12.602Z,8.00
2023-04-16T04:30:39.202Z,8.01
2023-04-16T04:33:06.312Z,8.03
2023-04-16T04:35:33.403Z,8.03
2023-04-16T04:37:59.932Z,8.02
2023-04-16T04:40:26.469Z,8.02
2023-04-16T04:42:53.033Z,7.96
2023-04-16T04:45:19.693Z,8.00
2023-04-16T04:47:46.291Z,7.99
2023-04-16T04:50:12.903Z,8.01
2023-04-16T04:52:39.447Z,7.99
2023-04-16T04:55:06.357Z,8.02
2023-04-16T04:57:32.965Z,7.94
2023-04-16T04:59:59.562Z,8.03
2023-04-16T05:02:26.219Z,8.01
2023-04-16T05:04:52.863Z,7.96
2023-04-16T05:07:19.466Z,7.98
2023-04-16T05:09:46.058Z,8.04
2023-04-16T05:12:12.633Z,8.05
2023-04-16T05:14:39.152Z,8.07
2023-04-16T05:17:06.108Z,8.02
2023-04-16T05:19:32.697Z,8.06
2023-04-16T05:21:59.707Z,8.10
2023-04-16T05:24:26.242Z,8.10
2023-04-16T05:26:52.816Z,8.11
2023-04-16T05:29:19.394Z,8.14
2023-04-16T05:31:46.165Z,8.13
2023-04-16T05:34:12.786Z,8.12
2023-04-16T05:36:39.320Z,8.20
2023-04-16T05:39:06.044Z,8.22
2023-04-16T05:41:32.714Z,8.23
2023-04-16T05:43:59.281Z,8.26
2023-04-16T05:46:25.978Z,8.28
2023-04-16T05:48:52.622Z,8.30
2023-04-16T05:51:19.486Z,8.31
2023-04-16T05:53:46.024Z,8.29
2023-04-16T05:56:12.627Z,8.30
2023-04-16T05:58:39.136Z,8.30
2023-04-16T06:01:05.673Z,8.30
2023-04-16T06:03:32.294Z,8.34
2023-04-16T06:05:58.966Z,8.34
2023-04-16T06:08:25.643Z,8.34
2023-04-16T06:10:52.254Z,8.35
2023-04-16T06:13:18.842Z,8.35
2023-04-16T06:15:45.462Z,8.37
2023-04-16T06:18:12.124Z,8.43
2023-04-16T06:20:38.764Z,8.43
2023-04-16T06:23:05.496Z,8.46
2023-04-16T06:25:32.119Z,8.43
2023-04-16T06:27:58.712Z,8.53
2023-04-16T06:30:25.571Z,8.56
2023-04-16T06:32:53.012Z,8.62
2023-04-16T06:35:20.310Z,8.61
2023-04-16T06:37:47.139Z,8.63
2023-04-16T06:40:13.782Z,8.69
2023-04-16T06:42:40.369Z,8.74
2023-04-16T06:45:07.654Z,8.78
2023-04-16T06:47:34.306Z,8.81
2023-04-16T06:50:00.832Z,8.86
2023-04-16T06:52:27.458Z,8.88
2023-04-16T06:54:54.041Z,8.88
2023-04-16T06:57:20.651Z,8.85
2023-04-16T06:59:47.197Z,8.91
2023-04-16T07:02:13.890Z,8.88
2023-04-16T07:04:40.755Z,8.93
2023-04-16T07:07:07.309Z,8.96
2023-04-16T07:09:34.073Z,8.95
2023-04-16T07:12:00.952Z,8.99
2023-04-16T07:14:27.528Z,9.01
2023-04-16T07:16:54.205Z,8.99
2023-04-16T07:19:21.081Z,9.01
2023-04-16T07:21:47.737Z,9.00
2023-04-16T07:24:14.363Z,8.95
2023-04-16T07:26:41.015Z,9.00
2023-04-16T07:29:07.820Z,9.10
2023-04-16T07:31:34.590Z,9.11
2023-04-16T07:34:01.260Z,9.20
2023-04-16T07:36:28.434Z,9.18
2023-04-16T07:38:56.102Z,9.29
2023-04-16T07:41:22.744Z,9.37
2023-04-16T07:43:49.325Z,9.38
2023-04-16T07:46:16.262Z,9.39
2023-04-16T07:48:43.091Z,9.51
2023-04-16T07:51:09.780Z,9.63
2023-04-16T07:53:36.543Z,9.61
2023-04-16T07:56:03.112Z,9.65
2023-04-16T07:58:29.627Z,9.75
2023-04-16T08:00:56.366Z,9.68
2023-04-16T08:03:23.169Z,9.70
2023-04-16T08:05:49.985Z,9.70
2023-04-16T08:08:16.586Z,9.77
2023-04-16T08:10:43.192Z,9.66
2023-04-16T08:13:09.737Z,9.61
2023-04-16T08:15:36.575Z,9.49
2023-04-16T08:18:03.239Z,9.60
2023-04-16T08:20:29.836Z,9.67
2023-04-16T08:22:56.383Z,9.62
2023-04-16T08:25:24.676Z,9.49
2023-04-16T08:27:51.239Z,9.36
2023-04-16T08:30:17.896Z,9.36
2023-04-16T08:32:44.543Z,9.42
2023-04-16T08:35:11.170Z,9.53
2023-04-16T08:37:38.771Z,9.52
2023-04-16T08:40:05.789Z,9.37
2023-04-16T08:42:44.841Z,9.40
2023-04-16T08:45:16.705Z,9.41
2023-04-16T08:47:47.895Z,9.42
2023-04-16T08:50:16.338Z,9.51
2023-04-16T08:52:53.414Z,9.53
2023-04-16T08:55:26.402Z,9.55
2023-04-16T08:57:57.591Z,9.56
2023-04-16T09:00:24.371Z,9.58
2023-04-16T09:02:51.929Z,9.58
2023-04-16T09:05:20.752Z,9.69
2023-04-16T09:07:48.517Z,9.68
2023-04-16T09:10:16.116Z,9.71
2023-04-16T09:12:43.702Z,9.71
2023-04-16T09:15:11.858Z,9.79
2023-04-16T09:17:39.450Z,9.87
2023-04-16T09:20:11.058Z,10.00
2023-04-16T09:22:38.396Z,9.88
2023-04-16T09:25:05.543Z,9.86
2023-04-16T09:27:32.272Z,9.84
2023-04-16T09:29:59.138Z,9.78
2023-04-16T09:32:27.836Z,9.74
2023-04-16T09:34:59.140Z,9.86
2023-04-16T09:37:29.579Z,9.85
2023-04-16T09:40:01.386Z,9.87
2023-04-16T09:42:30.968Z,9.78
2023-04-16T09:45:00.802Z,9.77
2023-04-16T09:47:43.196Z,9.67
2023-04-16T09:50:17.287Z,9.67
2023-04-16T09:52:48.490Z,9.58
2023-04-16T09:55:15.420Z,9.55
2023-04-16T09:57:41.976Z,9.55
2023-04-16T10:00:10.388Z,9.51
2023-04-16T10:02:41.773Z,9.64
2023-04-16T10:05:09.202Z,9.57
2023-04-16T10:07:37.349Z,9.66
2023-04-16T10:10:05.104Z,9.60
2023-04-16T10:12:32.909Z,9.49
2023-04-16T10:14:59.783Z,9.62
2023-04-16T10:17:29.907Z,9.65
2023-04-16T10:19:57.933Z,9.66
2023-04-16T10:22:24.521Z,9.65
2023-04-16T10:24:51.729Z,9.73
2023-04-16T10:27:19.818Z,9.70
2023-04-16T10:29:46.911Z,9.72
2023-04-16T10:32:14.316Z,9.61
2023-04-16T10:34:41.327Z,9.66
2023-04-16T10:37:07.878Z,9.64
2023-04-16T10:39:37.530Z,9.62
2023-04-16T10:42:09.088Z,9.55
2023-04-16T10:44:36.185Z,9.55
2023-04-16T10:47:03.089Z,9.57
2023-04-16T10:49:29.693Z,9.60
2023-04-16T10:51:57.330Z,9.64
2023-04-16T10:54:27.712Z,9.64
2023-04-16T10:56:57.022Z,9.52
2023-04-16T10:59:25.239Z,9.42
2023-04-16T11:01:58.498Z,9.50
2023-04-16T11:04:25.337Z,9.55
2023-04-16T11:07:04.321Z,9.63
2023-04-16T11:09:47.297Z,9.55
2023-04-16T11:12:27.847Z,9.56
2023-04-16T11:15:11.412Z,9.60
2023-04-16T11:17:50.497Z,9.58
2023-04-16T11:20:25.583Z,9.47
2023-04-16T11:22:54.645Z,9.52
2023-04-16T11:25:23.084Z,9.46
2023-04-16T11:27:51.190Z,9.50
2023-04-16T11:30:18.753Z,9.53
2023-04-16T11:32:45.690Z,9.51
2023-04-16T11:35:17.477Z,9.51
2023-04-16T11:37:45.195Z,9.50
2023-04-16T11:40:12.543Z,9.52
2023-04-16T11:42:40.924Z,9.52
2023-04-16T11:45:09.453Z,9.52
2023-04-16T11:47:53.367Z,9.60
2023-04-16T11:50:28.296Z,9.50
2023-04-16T11:52:57.786Z,9.57
2023-04-16T11:55:24.564Z,9.57
2023-04-16T11:57:51.974Z,9.52
2023-04-16T12:00:19.149Z,9.49
2023-04-16T12:02:55.494Z,9.44
2023-04-16T12:05:37.754Z,9.38
2023-04-16T12:08:10.601Z,9.40
2023-04-16T12:10:52.852Z,9.41
2023-04-16T12:13:19.759Z,9.38
2023-04-16T12:15:48.355Z,9.39
2023-04-16T12:18:16.331Z,9.45
2023-04-16T12:20:44.482Z,9.43
2023-04-16T12:23:22.093Z,9.49
2023-04-16T12:25:50.106Z,9.52
2023-04-16T12:28:31.313Z,9.43
2023-04-16T12:30:58.155Z,9.37
2023-04-16T12:33:25.125Z,9.35
2023-04-16T12:35:52.487Z,9.42
2023-04-16T12:38:19.329Z,9.42
2023-04-16T12:40:46.133Z,9.36
2023-04-16T12:43:12.707Z,9.39
2023-04-16T12:45:40.451Z,9.41
2023-04-16T12:48:07.212Z,9.38
2023-04-16T12:50:33.765Z,9.37
2023-04-16T12:53:00.449Z,9.43
2023-04-16T12:55:27.024Z,9.41
2023-04-16T12:57:54.644Z,9.35
2023-04-16T13:00:21.890Z,9.37
2023-04-16T13:02:48.669Z,9.27
2023-04-16T13:05:16.649Z,9.13
2023-04-16T13:07:43.521Z,9.23
2023-04-16T13:10:10.569Z,9.26
2023-04-16T13:12:37.261Z,9.32
2023-04-16T13:15:04.347Z,9.37
2023-04-16T13:17:31.231Z,9.32
2023-04-16T13:19:57.789Z,9.28
2023-04-16T13:22:24.513Z,9.24
2023-04-16T13:24:51.077Z,9.24
2023-04-16T13:27:17.956Z,9.25
2023-04-16T13:29:44.900Z,9.21
2023-04-16T13:32:13.710Z,9.31
2023-04-16T13:34:40.333Z,9.35
2023-04-16T13:37:06.901Z,9.27
2023-04-16T13:39:33.692Z,9.27
2023-04-16T13:42:00.363Z,9.36
2023-04-16T13:44:26.899Z,9.21
2023-04-16T13:46:53.594Z,9.29
2023-04-16T13:49:20.265Z,9.24
2023-04-16T13:51:46.806Z,9.31
2023-04-16T13:54:13.368Z,9.34
2023-04-16T13:56:40.875Z,9.34
2023-04-16T13:59:08.083Z,9.39
2023-04-16T14:01:34.995Z,9.31
2023-04-16T14:04:06.411Z,9.26
2023-04-16T14:06:34.487Z,9.17
2023-04-16T14:09:01.554Z,9.20
2023-04-16T14:11:28.485Z,9.19
2023-04-16T14:13:55.505Z,9.14
2023-04-16T14:16:22.216Z,9.21
2023-04-16T14:18:48.820Z,9.16
2023-04-16T14:21:15.671Z,9.13
2023-04-16T14:23:42.216Z,9.12
2023-04-16T14:26:08.797Z,9.07
2023-04-16T14:28:35.802Z,9.11
2023-04-16T14:31:02.499Z,9.16
2023-04-16T14:33:29.272Z,9.15
2023-04-16T14:35:56.038Z,9.15
2023-04-16T14:38:22.717Z,9.12
2023-04-16T14:40:49.418Z,9.13
2023-04-16T14:43:16.000Z,9.10
2023-04-16T14:45:42.573Z,9.06
2023-04-16T14:48:09.381Z,9.11
2023-04-16T14:50:37.927Z,9.12
2023-04-16T14:53:07.429Z,9.07
2023-04-16T14:55:34.066Z,9.13
2023-04-16T14:58:00.802Z,9.13
2023-04-16T15:00:27.619Z,9.07
2023-04-16T15:02:57.749Z,9.05
2023-04-16T15:05:24.570Z,9.07
2023-04-16T15:07:51.237Z,9.11
2023-04-16T15:10:17.955Z,9.07
2023-04-16T15:12:44.462Z,9.08
2023-04-16T15:15:11.325Z,9.14
2023-04-16T15:17:37.942Z,9.15
2023-04-16T15:20:08.185Z,9.15
2023-04-16T15:22:35.195Z,9.17
2023-04-16T15:25:02.053Z,9.05
2023-04-16T15:27:28.616Z,9.14
2023-04-16T15:29:55.409Z,9.14
2023-04-16T15:32:22.159Z,9.12
2023-04-16T15:34:48.887Z,9.06
2023-04-16T15:37:16.059Z,9.04
2023-04-16T15:39:42.743Z,9.07
2023-04-16T15:42:09.339Z,9.10
2023-04-16T15:44:36.326Z,9.12
2023-04-16T15:47:02.939Z,9.13
2023-04-16T15:49:29.482Z,9.12
2023-04-16T15:51:56.426Z,9.13
2023-04-16T15:54:23.584Z,9.12
2023-04-16T15:56:50.425Z,9.11
2023-04-16T15:59:17.014Z,9.06
2023-04-16T16:01:43.641Z,9.00
2023-04-16T16:04:10.455Z,9.01
2023-04-16T16:06:38.190Z,9.06
2023-04-16T16:09:05.010Z,9.00
2023-04-16T16:11:32.661Z,9.04
2023-04-16T16:14:01.438Z,8.97
2023-04-16T16:16:28.550Z,9.02
2023-04-16T16:18:55.655Z,9.07
2023-04-16T16:21:22.248Z,8.96
2023-04-16T16:23:48.883Z,8.93
2023-04-16T16:26:15.435Z,8.86
2023-04-16T16:28:43.892Z,8.89
2023-04-16T16:31:12.226Z,8.90
2023-04-16T16:33:40.480Z,8.92
2023-04-16T16:36:10.929Z,8.91
2023-04-16T16:38:38.004Z,8.95
2023-04-16T16:41:04.580Z,8.88
2023-04-16T16:43:31.453Z,8.89
2023-04-16T16:45:58.030Z,8.91
2023-04-16T16:48:24.701Z,8.95
2023-04-16T16:50:51.211Z,8.96
2023-04-16T16:53:17.735Z,8.95
2023-04-16T16:55:44.269Z,8.95
2023-04-16T16:58:11.243Z,8.97
2023-04-16T17:00:38.067Z,8.93
2023-04-16T17:03:04.775Z,8.91
2023-04-16T17:05:31.655Z,8.85
2023-04-16T17:07:58.672Z,8.83
2023-04-16T17:10:25.408Z,8.86
2023-04-16T17:12:52.147Z,8.90
2023-04-16T17:15:21.449Z,8.89
2023-04-16T17:17:48.750Z,8.81
2023-04-16T17:20:15.716Z,8.81
2023-04-16T17:22:42.746Z,8.81
2023-04-16T17:25:10.178Z,8.79
2023-04-16T17:27:36.807Z,8.78
2023-04-16T17:30:05.361Z,8.80
2023-04-16T17:32:32.865Z,8.78
2023-04-16T17:35:01.057Z,8.78
2023-04-16T17:37:27.797Z,8.77
2023-04-16T17:39:54.387Z,8.73
2023-04-16T17:42:21.071Z,8.77
2023-04-16T17:44:47.798Z,8.72
2023-04-16T17:47:14.393Z,8.73
2023-04-16T17:49:40.980Z,8.74
2023-04-16T17:52:07.512Z,8.74
2023-04-16T17:54:34.076Z,8.71
2023-04-16T17:57:00.639Z,8.74
2023-04-16T17:59:27.452Z,8.75
2023-04-16T18:01:54.899Z,8.77
2023-04-16T18:04:21.723Z,8.75
2023-04-16T18:06:48.489Z,8.75
2023-04-16T18:09:15.547Z,8.74
2023-04-16T18:11:42.124Z,8.75
2023-04-16T18:14:09.868Z,8.72
2023-04-16T18:16:36.814Z,8.74
2023-04-16T18:19:03.363Z,8.71
2023-04-16T18:21:30.393Z,8.74
2023-04-16T18:23:57.597Z,8.75
2023-04-16T18:26:25.314Z,8.74
2023-04-16T18:28:51.954Z,8.73
2023-04-16T18:31:21.179Z,8.69
2023-04-16T18:33:55.595Z,8.71
2023-04-16T18:36:23.769Z,8.71
2023-04-16T18:39:00.822Z,8.71
2023-04-16T18:41:28.734Z,8.71
2023-04-16T18:43:55.364Z,8.69
2023-04-16T18:46:22.044Z,8.69
2023-04-16T18:48:48.692Z,8.68
2023-04-16T18:51:16.576Z,8.69
2023-04-16T18:53:44.381Z,8.70
2023-04-16T18:56:11.664Z,8.70
2023-04-16T18:58:38.313Z,8.68
2023-04-16T19:01:07.751Z,8.67
2023-04-16T19:03:34.668Z,8.66
2023-04-16T19:06:01.638Z,8.66
2023-04-16T19:08:28.231Z,8.68
2023-04-16T19:10:54.805Z,8.64
2023-04-16T19:13:21.376Z,8.67
2023-04-16T19:15:47.991Z,8.66
2023-04-16T19:18:14.682Z,8.67
2023-04-16T19:20:41.264Z,8.67
2023-04-16T19:23:09.184Z,8.69
2023-04-16T19:25:39.269Z,8.68
2023-04-16T19:28:05.836Z,8.68
2023-04-16T19:30:32.443Z,8.68
2023-04-16T19:32:59.080Z,8.69
2023-04-16T19:35:25.772Z,8.68
2023-04-16T19:37:52.344Z,8.69
2023-04-16T19:40:19.176Z,8.68
2023-04-16T19:42:45.834Z,8.63
2023-04-16T19:45:12.377Z,8.67
2023-04-16T19:47:39.121Z,8.65
2023-04-16T19:50:06.468Z,8.66
2023-04-16T19:52:38.663Z,8.67
2023-04-16T19:55:06.620Z,8.66
2023-04-16T19:57:33.306Z,8.66
2023-04-16T20:00:00.144Z,8.66
2023-04-16T20:02:26.974Z,8.64
2023-04-16T20:04:53.796Z,8.62
2023-04-16T20:07:20.580Z,8.61
2023-04-16T20:09:47.378Z,8.63
2023-04-16T20:12:14.410Z,8.61
2023-04-16T20:14:41.899Z,8.61
2023-04-16T20:17:10.060Z,8.59
2023-04-16T20:19:49.526Z,8.61
2023-04-16T20:22:18.345Z,8.59
2023-04-16T20:24:47.875Z,8.59
2023-04-16T20:27:15.336Z,8.57
2023-04-16T20:29:42.477Z,8.59
2023-04-16T20:32:09.158Z,8.58
2023-04-16T20:34:36.694Z,8.59
2023-04-16T20:37:06.304Z,8.59
2023-04-16T20:39:40.035Z,8.58
2023-04-16T20:42:10.371Z,8.57
2023-04-16T20:44:40.768Z,8.54
2023-04-16T20:47:08.596Z,8.56
2023-04-16T20:49:35.217Z,8.53
2023-04-16T20:52:02.740Z,8.57
2023-04-16T20:54:30.117Z,8.51
2023-04-16T20:56:57.458Z,8.55
2023-04-16T20:59:24.546Z,8.56
2023-04-16T21:01:52.303Z,8.53
2023-04-16T21:04:19.125Z,8.52
2023-04-16T21:06:45.775Z,8.57
2023-04-16T21:09:13.174Z,8.53
2023-04-16T21:11:39.923Z,8.56
2023-04-16T21:14:06.788Z,8.52
2023-04-16T21:16:33.452Z,8.53
2023-04-16T21:19:00.095Z,8.55
2023-04-16T21:21:27.460Z,8.55
2023-04-16T21:23:54.046Z,8.54
2023-04-16T21:26:20.964Z,8.49
2023-04-16T21:28:47.588Z,8.54
2023-04-16T21:31:14.232Z,8.51
2023-04-16T21:33:41.037Z,8.49
2023-04-16T21:36:07.870Z,8.53
2023-04-16T21:38:34.475Z,8.51
2023-04-16T21:41:01.914Z,8.51
2023-04-16T21:43:30.576Z,8.50
2023-04-16T21:45:57.254Z,8.50
2023-04-16T21:48:24.362Z,8.48
2023-04-16T21:50:58.201Z,8.48
2023-04-16T21:53:25.985Z,8.48
2023-04-16T21:55:52.524Z,8.50
2023-04-16T21:58:19.121Z,8.50
2023-04-16T22:00:45.743Z,8.50
2023-04-16T22:03:12.439Z,8.50
2023-04-16T22:05:39.251Z,8.47
2023-04-16T22:08:23.440Z,8.47
2023-04-16T22:10:51.191Z,8.50
2023-04-16T22:13:17.994Z,8.50
2023-04-16T22:15:44.578Z,8.48
2023-04-16T22:18:11.473Z,8.46
2023-04-16T22:20:39.003Z,8.46
2023-04-16T22:23:06.535Z,8.48
2023-04-16T22:25:33.491Z,8.44
2023-04-16T22:28:01.532Z,8.42
2023-04-16T22:30:28.149Z,8.33
2023-04-16T22:32:54.809Z,8.39
2023-04-16T22:35:21.550Z,8.39
2023-04-16T22:37:48.060Z,8.41
2023-04-16T22:40:14.953Z,8.36
2023-04-16T22:42:41.601Z,8.40
2023-04-16T22:45:08.806Z,8.39
2023-04-16T22:47:35.386Z,8.38
2023-04-16T22:50:02.068Z,8.40
2023-04-16T22:52:28.639Z,8.38
2023-04-16T22:54:55.200Z,8.41
2023-04-16T22:57:24.801Z,8.40
2023-04-16T22:59:52.338Z,8.42
2023-04-16T23:02:19.547Z,8.40
2023-04-16T23:04:47.798Z,8.40
2023-04-16T23:07:15.541Z,8.39
2023-04-16T23:09:42.462Z,8.39
2023-04-16T23:12:09.166Z,8.41
2023-04-16T23:14:36.954Z,8.41
2023-04-16T23:17:03.720Z,8.39
2023-04-16T23:19:31.245Z,8.37
2023-04-16T23:21:58.080Z,8.37
2023-04-16T23:24:24.674Z,8.37
2023-04-16T23:26:52.498Z,8.35
2023-04-16T23:29:20.264Z,8.38
2023-04-16T23:31:46.898Z,8.32
2023-04-16T23:34:13.607Z,8.33
2023-04-16T23:36:40.748Z,8.32
2023-04-16T23:39:07.396Z,8.33
2023-04-16T23:41:34.385Z,8.33
2023-04-16T23:44:01.023Z,8.33
2023-04-16T23:46:27.692Z,8.34
2023-04-16T23:48:55.429Z,8.31
2023-04-16T23:51:22.273Z,8.33
2023-04-16T23:53:48.838Z,8.31
2023-04-16T23:56:16.345Z,8.25
2023-04-16T23:58:42.937Z,8.31
